Time;durP1;ratioP1;P1;durP2;ratioP2;P2;SDS_P1;SDS_P2;PMS_P1;PMS_P2;Temp;Humidity;BMP_temperature;BMP_pressure;BME280_temperature;BME280_humidity;BME280_pressure;Samples;Min_cycle;Max_cycle;Signal;HPM_P1;HPM_P2
2022/06/11 00:00:39;;;;;;;;;;;;;;;;;;2049835;29;19914;-87
2022/06/11 00:01:42;;;;;;;;;;;;;;;;;;2058161;28;20001;-87
2022/06/11 00:02:42;;;;;;;;;;;;;;;;;;2049655;29;19914;-83
2022/06/11 00:03:43;;;;;;;;;;;;;;;;;;2049708;28;20376;-80
2022/06/11 00:04:44;;;;;;;;;;;;;;;;;;2049664;29;19918;-83
2022/06/11 00:05:44;;;;;;;;;;;;;;;;;;2049981;29;20499;-81
2022/06/11 00:06:46;;;;;;;;;;;;;;;;;;2058073;28;19949;-82
2022/06/11 00:07:46;;;;;;;;;;;;;;;;;;2057903;28;19914;-82
2022/06/11 00:08:47;;;;;;;;;;;;;;;;;;2058361;28;19980;-81
2022/06/11 00:09:49;;;;;;;;;;;;;;;;;;2049881;29;19950;-83
2022/06/11 00:10:49;;;;;;;;;;;;;;;;;;2049572;28;19926;-82
2022/06/11 00:11:51;;;;;;;;;;;;;;;;;;2050090;28;20611;-84
2022/06/11 00:12:52;;;;;;;;;;;;;;;;;;2042077;29;19914;-85
2022/06/11 00:13:52;;;;;;;;;;;;;;;;;;2049904;29;19969;-81
2022/06/11 00:14:53;;;;;;;;;;;;;;;;;;2057543;28;19928;-84
2022/06/11 00:15:54;;;;;;;;;;;;;;;;;;2049883;29;19915;-84
2022/06/11 00:16:55;;;;;;;;;;;;;;;;;;2049938;28;20616;-83
2022/06/11 00:17:56;;;;;;;;;;;;;;;;;;2057906;28;19918;-85
2022/06/11 00:18:57;;;;;;;;;;;;;;;;;;2058521;28;19925;-83
2022/06/11 00:19:58;;;;;;;;;;;;;;;;;;2058285;28;20368;-85
2022/06/11 00:20:58;;;;;;;;;;;;;;;;;;2058298;28;19925;-85
2022/06/11 00:21:59;;;;;;;;;;;;;;;;;;2058016;28;19965;-83
2022/06/11 00:22:59;;;;;;;;;;;;;;;;;;2049616;29;19921;-83
2022/06/11 00:24:00;;;;;;;;;;;;;;;;;;2050008;29;19990;-85
2022/06/11 00:25:01;;;;;;;;;;;;;;;;;;2049868;29;19922;-85
2022/06/11 00:26:03;;;;;;;;;;;;;;;;;;2049927;29;19925;-82
2022/06/11 00:27:04;;;;;;;;;;;;;;;;;;2057955;28;19914;-85
2022/06/11 00:28:05;;;;;;;;;;;;;;;;;;2058311;28;19980;-85
2022/06/11 00:29:05;;;;;;;;;;;;;;;;;;2049688;29;20308;-85
2022/06/11 00:30:07;;;;;;;;;;;;;;;;;;2041866;29;19965;-86
2022/06/11 00:31:07;;;;;;;;;;;;;;;;;;2049903;28;19914;-85
2022/06/11 00:32:09;;;;;;;;;;;;;;;;;;2049758;29;20387;-85
2022/06/11 00:33:09;;;;;;;;;;;;;;;;;;2049836;28;19946;-85
2022/06/11 00:34:10;;;;;;;;;;;;;;;;;;2049680;29;19941;-85
2022/06/11 00:35:10;;;;;;;;;;;;;;;;;;2049963;29;19939;-85
2022/06/11 00:36:11;;;;;;;;;;;;;;;;;;2049624;28;20009;-85
2022/06/11 00:37:14;;;;;;;;;;;;;;;;;;2049775;28;20276;-86
2022/06/11 00:38:14;;;;;;;;;;;;;;;;;;2058211;28;19918;-85
2022/06/11 00:39:16;;;;;;;;;;;;;;;;;;2049683;29;19918;-85
2022/06/11 00:40:20;;;;;;;;;;;;;;;;;;2049790;28;19940;-85
2022/06/11 00:41:22;;;;;;;;;;;;;;;;;;2049604;28;19918;-85
2022/06/11 00:42:25;;;;;;;;;;;;;;;;;;2049878;28;20005;-85
2022/06/11 00:43:26;;;;;;;;;;;;;;;;;;2058343;28;19981;-84
2022/06/11 00:44:27;;;;;;;;;;;;;;;;;;2049591;29;19918;-85
2022/06/11 00:45:27;;;;;;;;;;;;;;;;;;2049793;29;19918;-85
2022/06/11 00:46:33;;;;;;;;;;;;;;;;;;2049703;29;19914;-85
2022/06/11 00:47:34;;;;;;;;;;;;;;;;;;2050432;28;19925;-85
2022/06/11 00:48:38;;;;;;;;;;;;;;;;;;2058145;28;19961;-84
2022/06/11 00:49:38;;;;;;;;;;;;;;;;;;2049553;29;19914;-84
2022/06/11 00:50:48;;;;;;;;;;;;;;;;;;2049467;29;19915;-84
2022/06/11 00:51:53;;;;;;;;;;;;;;;;;;2058246;28;19957;-84
2022/06/11 00:52:55;;;;;;;;;;;;;;;;;;2058244;28;19992;-84
2022/06/11 00:54:00;;;;;;;;;;;;;;;;;;2058256;28;20371;-85
2022/06/11 00:55:11;;;;;;;;;;;;;;;;;;2057942;28;19913;-85
2022/06/11 00:56:44;;;;;;;;;;;;;;;;;;2049642;29;19953;-85
2022/06/11 00:58:04;;;;;;;;;;;;;;;;;;2025627;29;19927;-84
2022/06/11 00:59:06;;;;;;;;;;;;;;;;;;2051796;28;19954;-85
2022/06/11 01:00:10;;;;;;;;;;;;;;;;;;2058333;28;19914;-86
2022/06/11 01:01:13;;;;;;;;;;;;;;;;;;2058121;28;20430;-85
2022/06/11 01:02:13;;;;;;;;;;;;;;;;;;2058102;28;20302;-85
2022/06/11 01:03:17;;;;;;;;;;;;;;;;;;2049585;28;19918;-85
2022/06/11 01:04:35;;;;;;;;;;;;;;;;;;2050018;28;19919;-86
2022/06/11 01:05:40;;;;;;;;;;;;;;;;;;2058244;28;19929;-85
2022/06/11 01:06:51;;;;;;;;;;;;;;;;;;2049458;28;19961;-84
2022/06/11 01:07:51;;;;;;;;;;;;;;;;;;2043073;29;19996;-85
2022/06/11 01:08:54;;;;;;;;;;;;;;;;;;2049645;29;19995;-85
2022/06/11 01:10:07;;;;;;;;;;;;;;;;;;2049541;29;20272;-85
2022/06/11 01:11:07;;;;;;;;;;;;;;;;;;2051175;28;19930;-85
2022/06/11 01:12:24;;;;;;;;;;;;;;;;;;2057848;28;20375;-85
2022/06/11 01:13:31;;;;;;;;;;;;;;;;;;2049505;29;19950;-83
2022/06/11 01:14:31;;;;;;;;;;;;;;;;;;2050418;28;20295;-85
2022/06/11 01:15:37;;;;;;;;;;;;;;;;;;2049315;29;19914;-85
2022/06/11 01:16:56;;;;;;;;;;;;;;;;;;2050222;28;19914;-85
2022/06/11 01:18:02;;;;;;;;;;;;;;;;;;2049223;29;19922;-85
2022/06/11 01:19:02;;;;;;;;;;;;;;;;;;2050238;28;19914;-84
2022/06/11 01:20:14;;;;;;;;;;;;;;;;;;2049328;29;19918;-85
2022/06/11 01:21:14;;;;;;;;;;;;;;;;;;2051116;28;19914;-85
2022/06/11 01:22:33;;;;;;;;;;;;;;;;;;2049436;29;20134;-85
2022/06/11 01:23:33;;;;;;;;;;;;;;;;;;2051894;28;19919;-85
2022/06/11 01:25:00;;;;;;;;;;;;;;;;;;2057853;28;19953;-83
2022/06/11 01:26:09;;;;;;;;;;;;;;;;;;2054611;28;20335;-84
2022/06/11 01:27:16;;;;;;;;;;;;;;;;;;2057581;28;20415;-85
2022/06/11 01:28:34;;;;;;;;;;;;;;;;;;2057833;28;20352;-85
2022/06/11 01:29:50;;;;;;;;;;;;;;;;;;2049258;28;19914;-85
2022/06/11 01:30:53;;;;;;;;;;;;;;;;;;2051522;28;20347;-84
2022/06/11 01:31:56;;;;;;;;;;;;;;;;;;2049290;29;19964;-86
2022/06/11 01:33:26;;;;;;;;;;;;;;;;;;2041587;29;19915;-84
2022/06/11 01:34:26;;;;;;;;;;;;;;;;;;2036273;29;20380;-86
2022/06/11 01:35:30;;;;;;;;;;;;;;;;;;2049321;28;19925;-86
2022/06/11 01:36:41;;;;;;;;;;;;;;;;;;2057416;28;19922;-85
2022/06/11 01:37:45;;;;;;;;;;;;;;;;;;2048902;29;20381;-85
2022/06/11 01:38:45;;;;;;;;;;;;;;;;;;2041763;29;19942;-85
2022/06/11 01:39:52;;;;;;;;;;;;;;;;;;2049390;29;20319;-85
2022/06/11 01:41:25;;;;;;;;;;;;;;;;;;2057613;28;19961;-85
2022/06/11 01:42:34;;;;;;;;;;;;;;;;;;2032777;29;20047;-84
2022/06/11 01:43:39;;;;;;;;;;;;;;;;;;2053233;28;19914;-85
2022/06/11 01:44:41;;;;;;;;;;;;;;;;;;2057682;28;20405;-82
2022/06/11 01:45:42;;;;;;;;;;;;;;;;;;2057388;28;20331;-85
2022/06/11 01:46:45;;;;;;;;;;;;;;;;;;2057506;28;19925;-85
2022/06/11 01:47:46;;;;;;;;;;;;;;;;;;2057782;28;19928;-85
2022/06/11 01:48:57;;;;;;;;;;;;;;;;;;2049026;29;19999;-85
2022/06/11 01:49:58;;;;;;;;;;;;;;;;;;2042564;29;19915;-84
2022/06/11 01:51:17;;;;;;;;;;;;;;;;;;2049195;29;20299;-85
2022/06/11 01:52:44;;;;;;;;;;;;;;;;;;2057397;28;19922;-83
2022/06/11 01:53:52;;;;;;;;;;;;;;;;;;2049007;29;19918;-85
2022/06/11 01:55:01;;;;;;;;;;;;;;;;;;2050139;28;20253;-85
2022/06/11 01:56:18;;;;;;;;;;;;;;;;;;2057300;28;19924;-84
2022/06/11 01:57:44;;;;;;;;;;;;;;;;;;2059086;28;19925;-84
2022/06/11 01:58:47;;;;;;;;;;;;;;;;;;2057306;28;19925;-85
2022/06/11 02:00:10;;;;;;;;;;;;;;;;;;2057589;28;20020;-86
2022/06/11 02:01:13;;;;;;;;;;;;;;;;;;2049358;28;20291;-84
2022/06/11 02:02:19;;;;;;;;;;;;;;;;;;2057310;28;19918;-84
2022/06/11 02:03:37;;;;;;;;;;;;;;;;;;2048661;29;20001;-84
2022/06/11 02:04:47;;;;;;;;;;;;;;;;;;2043395;29;19930;-84
2022/06/11 02:05:47;;;;;;;;;;;;;;;;;;2050377;28;19985;-85
2022/06/11 02:07:03;;;;;;;;;;;;;;;;;;2057678;28;20415;-84
2022/06/11 02:08:14;;;;;;;;;;;;;;;;;;2057075;28;19934;-84
2022/06/11 02:09:33;;;;;;;;;;;;;;;;;;2057480;28;19979;-85
2022/06/11 02:10:48;;;;;;;;;;;;;;;;;;2057214;28;19922;-85
2022/06/11 02:11:50;;;;;;;;;;;;;;;;;;2048830;29;19915;-84
2022/06/11 02:13:03;;;;;;;;;;;;;;;;;;2041107;29;19914;-85
2022/06/11 02:14:12;;;;;;;;;;;;;;;;;;2042254;29;19927;-85
2022/06/11 02:15:22;;;;;;;;;;;;;;;;;;2050298;28;19919;-85
2022/06/11 02:16:28;;;;;;;;;;;;;;;;;;2057389;28;19972;-85
2022/06/11 02:17:32;;;;;;;;;;;;;;;;;;2057466;28;20311;-85
2022/06/11 02:18:36;;;;;;;;;;;;;;;;;;2057458;28;20045;-84
2022/06/11 02:19:42;;;;;;;;;;;;;;;;;;2057498;28;19945;-87
2022/06/11 02:20:48;;;;;;;;;;;;;;;;;;2057517;28;19914;-85
2022/06/11 02:22:00;;;;;;;;;;;;;;;;;;2049084;29;19918;-84
2022/06/11 02:23:20;;;;;;;;;;;;;;;;;;2050677;28;19982;-85
2022/06/11 02:24:27;;;;;;;;;;;;;;;;;;2046722;28;19922;-85
2022/06/11 02:25:30;;;;;;;;;;;;;;;;;;2057473;28;19914;-85
2022/06/11 02:26:33;;;;;;;;;;;;;;;;;;2048807;29;19915;-84
2022/06/11 02:27:34;;;;;;;;;;;;;;;;;;2048787;28;19966;-86
2022/06/11 02:28:39;;;;;;;;;;;;;;;;;;2056803;28;19929;-85
2022/06/11 02:29:39;;;;;;;;;;;;;;;;;;2048516;29;19914;-84
2022/06/11 02:30:42;;;;;;;;;;;;;;;;;;2040910;29;19978;-83
2022/06/11 02:31:47;;;;;;;;;;;;;;;;;;2048353;28;20490;-85
2022/06/11 02:32:48;;;;;;;;;;;;;;;;;;2056972;28;19925;-84
2022/06/11 02:33:48;;;;;;;;;;;;;;;;;;2056908;28;19965;-84
2022/06/11 02:34:55;;;;;;;;;;;;;;;;;;2048292;29;19925;-84
2022/06/11 02:35:58;;;;;;;;;;;;;;;;;;2049244;28;20283;-85
2022/06/11 02:36:58;;;;;;;;;;;;;;;;;;2056555;28;20299;-82
2022/06/11 02:37:59;;;;;;;;;;;;;;;;;;2056639;28;19925;-83
2022/06/11 02:39:06;;;;;;;;;;;;;;;;;;2048106;28;20324;-85
2022/06/11 02:40:12;;;;;;;;;;;;;;;;;;2049469;28;20427;-84
2022/06/11 02:41:18;;;;;;;;;;;;;;;;;;2048207;29;19997;-84
2022/06/11 02:42:20;;;;;;;;;;;;;;;;;;2049177;28;19925;-85
2022/06/11 02:43:20;;;;;;;;;;;;;;;;;;2048225;29;19989;-85
2022/06/11 02:44:21;;;;;;;;;;;;;;;;;;2048277;29;19962;-85
2022/06/11 02:45:21;;;;;;;;;;;;;;;;;;2056308;28;20392;-85
2022/06/11 02:47:45;;;;;;;;;;;;;;;;;;2056838;28;19957;-85
2022/06/11 02:48:45;;;;;;;;;;;;;;;;;;2056973;28;19950;-83
2022/06/11 02:49:46;;;;;;;;;;;;;;;;;;2056905;28;20387;-85
2022/06/11 02:50:48;;;;;;;;;;;;;;;;;;2048374;29;20334;-83
2022/06/11 02:51:52;;;;;;;;;;;;;;;;;;2049161;28;20303;-84
2022/06/11 02:52:54;;;;;;;;;;;;;;;;;;2057021;28;20053;-85
2022/06/11 02:53:57;;;;;;;;;;;;;;;;;;2048272;28;19926;-84
2022/06/11 02:54:57;;;;;;;;;;;;;;;;;;2048771;28;19925;-84
2022/06/11 02:55:57;;;;;;;;;;;;;;;;;;2048543;29;19915;-84
2022/06/11 02:56:58;;;;;;;;;;;;;;;;;;2048343;29;19914;-85
2022/06/11 02:57:59;;;;;;;;;;;;;;;;;;2056477;28;19925;-85
2022/06/11 02:58:59;;;;;;;;;;;;;;;;;;2048178;29;20352;-84
2022/06/11 03:00:00;;;;;;;;;;;;;;;;;;2048510;29;20306;-84
2022/06/11 03:01:00;;;;;;;;;;;;;;;;;;2056697;28;19980;-85
2022/06/11 03:02:01;;;;;;;;;;;;;;;;;;2048253;28;19915;-85
2022/06/11 03:03:01;;;;;;;;;;;;;;;;;;2040307;29;19962;-84
2022/06/11 03:04:02;;;;;;;;;;;;;;;;;;2048207;28;19922;-85
2022/06/11 03:05:03;;;;;;;;;;;;;;;;;;2056723;28;20355;-84
2022/06/11 03:06:03;;;;;;;;;;;;;;;;;;2048436;29;20014;-84
2022/06/11 03:07:04;;;;;;;;;;;;;;;;;;2040459;29;19954;-84
2022/06/11 03:08:05;;;;;;;;;;;;;;;;;;2048342;28;19914;-84
2022/06/11 03:09:05;;;;;;;;;;;;;;;;;;2048270;29;20295;-84
2022/06/11 03:10:06;;;;;;;;;;;;;;;;;;2040416;29;19919;-84
2022/06/11 03:11:07;;;;;;;;;;;;;;;;;;2040613;29;20356;-84
2022/06/11 03:12:08;;;;;;;;;;;;;;;;;;2048668;29;20343;-85
2022/06/11 03:13:09;;;;;;;;;;;;;;;;;;2057180;28;19914;-84
2022/06/11 03:14:10;;;;;;;;;;;;;;;;;;2057021;28;19914;-84
2022/06/11 03:15:11;;;;;;;;;;;;;;;;;;2056920;28;19914;-82
2022/06/11 03:16:12;;;;;;;;;;;;;;;;;;2056967;28;20021;-84
2022/06/11 03:17:15;;;;;;;;;;;;;;;;;;2048339;29;19958;-84
2022/06/11 03:18:16;;;;;;;;;;;;;;;;;;2048834;28;20363;-84
2022/06/11 03:19:20;;;;;;;;;;;;;;;;;;2048262;28;19919;-84
2022/06/11 03:20:21;;;;;;;;;;;;;;;;;;2049267;28;20360;-84
2022/06/11 03:21:22;;;;;;;;;;;;;;;;;;2057045;28;20423;-84
2022/06/11 03:22:22;;;;;;;;;;;;;;;;;;2049137;28;19914;-84
2022/06/11 03:23:23;;;;;;;;;;;;;;;;;;2050324;28;19936;-84
2022/06/11 03:24:24;;;;;;;;;;;;;;;;;;2050274;29;20002;-84
2022/06/11 03:25:24;;;;;;;;;;;;;;;;;;2050287;29;19918;-85
2022/06/11 03:26:27;;;;;;;;;;;;;;;;;;2058232;28;19925;-85
2022/06/11 03:27:27;;;;;;;;;;;;;;;;;;2058536;28;19957;-84
2022/06/11 03:28:28;;;;;;;;;;;;;;;;;;2049791;29;19938;-83
2022/06/11 03:29:28;;;;;;;;;;;;;;;;;;2050074;29;19934;-84
2022/06/11 03:30:29;;;;;;;;;;;;;;;;;;2058587;28;19945;-85
2022/06/11 03:31:29;;;;;;;;;;;;;;;;;;2049912;29;20245;-85
2022/06/11 03:32:29;;;;;;;;;;;;;;;;;;2049667;29;19914;-84
2022/06/11 03:33:34;;;;;;;;;;;;;;;;;;2058314;28;19996;-85
2022/06/11 03:34:35;;;;;;;;;;;;;;;;;;2058251;28;20001;-85
2022/06/11 03:35:36;;;;;;;;;;;;;;;;;;2058269;28;19990;-84
2022/06/11 03:36:37;;;;;;;;;;;;;;;;;;2058478;28;19914;-84
2022/06/11 03:37:38;;;;;;;;;;;;;;;;;;2058168;28;19925;-84
2022/06/11 03:38:40;;;;;;;;;;;;;;;;;;2058303;28;19914;-84
2022/06/11 03:39:41;;;;;;;;;;;;;;;;;;2058463;28;19914;-84
2022/06/11 03:40:41;;;;;;;;;;;;;;;;;;2058139;28;20298;-84
2022/06/11 03:41:41;;;;;;;;;;;;;;;;;;2058473;28;19925;-83
2022/06/11 03:42:42;;;;;;;;;;;;;;;;;;2049964;29;20296;-85
2022/06/11 03:43:42;;;;;;;;;;;;;;;;;;2049579;29;20017;-83
2022/06/11 03:44:42;;;;;;;;;;;;;;;;;;2058587;28;19914;-85
2022/06/11 03:45:43;;;;;;;;;;;;;;;;;;2049700;29;19914;-83
2022/06/11 03:46:44;;;;;;;;;;;;;;;;;;2041980;29;19966;-84
2022/06/11 03:47:44;;;;;;;;;;;;;;;;;;2041843;29;19933;-83
2022/06/11 03:48:45;;;;;;;;;;;;;;;;;;2049491;29;19933;-83
2022/06/11 03:49:45;;;;;;;;;;;;;;;;;;2057923;28;19918;-84
2022/06/11 03:50:45;;;;;;;;;;;;;;;;;;2049934;29;19930;-85
2022/06/11 03:51:49;;;;;;;;;;;;;;;;;;2049727;29;19926;-84
2022/06/11 03:52:50;;;;;;;;;;;;;;;;;;2049895;29;20040;-84
2022/06/11 03:53:50;;;;;;;;;;;;;;;;;;2049924;29;19986;-84
2022/06/11 03:54:54;;;;;;;;;;;;;;;;;;2057690;28;20404;-84
2022/06/11 03:55:55;;;;;;;;;;;;;;;;;;2058210;28;20352;-83
2022/06/11 03:56:55;;;;;;;;;;;;;;;;;;2058443;28;19969;-84
2022/06/11 03:57:56;;;;;;;;;;;;;;;;;;2058507;28;19918;-84
2022/06/11 03:58:56;;;;;;;;;;;;;;;;;;2058044;28;19932;-84
2022/06/11 03:59:59;;;;;;;;;;;;;;;;;;2058218;28;19918;-84
2022/06/11 04:01:18;;;;;;;;;;;;;;;;;;2058305;28;19929;-84
2022/06/11 04:02:18;;;;;;;;;;;;;;;;;;2049582;29;19970;-84
2022/06/11 04:03:19;;;;;;;;;;;;;;;;;;2049685;29;19970;-84
2022/06/11 04:04:21;;;;;;;;;;;;;;;;;;2049525;29;20373;-84
2022/06/11 04:05:21;;;;;;;;;;;;;;;;;;2049679;28;19918;-84
2022/06/11 04:06:23;;;;;;;;;;;;;;;;;;2058284;28;19914;-84
2022/06/11 04:07:24;;;;;;;;;;;;;;;;;;2058022;28;20303;-83
2022/06/11 04:08:25;;;;;;;;;;;;;;;;;;2049767;29;20017;-83
2022/06/11 04:09:32;;;;;;;;;;;;;;;;;;2041603;29;19946;-83
2022/06/11 04:10:33;;;;;;;;;;;;;;;;;;2050531;28;19953;-84
2022/06/11 04:11:34;;;;;;;;;;;;;;;;;;2049563;28;19930;-84
2022/06/11 04:12:34;;;;;;;;;;;;;;;;;;2041797;29;19922;-83
2022/06/11 04:13:35;;;;;;;;;;;;;;;;;;2048987;29;19914;-84
2022/06/11 04:14:36;;;;;;;;;;;;;;;;;;2057575;28;20351;-85
2022/06/11 04:15:37;;;;;;;;;;;;;;;;;;2049651;29;19997;-83
2022/06/11 04:17:04;;;;;;;;;;;;;;;;;;2057952;28;20440;-84
2022/06/11 04:18:05;;;;;;;;;;;;;;;;;;2055162;28;19914;-83
2022/06/11 04:19:06;;;;;;;;;;;;;;;;;;2057981;28;19921;-83
2022/06/11 04:20:07;;;;;;;;;;;;;;;;;;2057937;28;19957;-84
2022/06/11 04:21:09;;;;;;;;;;;;;;;;;;2058079;28;19992;-84
2022/06/11 04:22:10;;;;;;;;;;;;;;;;;;2058084;28;19914;-83
2022/06/11 04:23:10;;;;;;;;;;;;;;;;;;2058368;28;20008;-83
2022/06/11 04:24:10;;;;;;;;;;;;;;;;;;2057752;28;19918;-84
2022/06/11 04:25:12;;;;;;;;;;;;;;;;;;2049476;29;19919;-81
2022/06/11 04:26:15;;;;;;;;;;;;;;;;;;2049494;28;19914;-82
2022/06/11 04:27:16;;;;;;;;;;;;;;;;;;2057976;28;19920;-83
2022/06/11 04:28:17;;;;;;;;;;;;;;;;;;2057888;28;19914;-82
2022/06/11 04:29:18;;;;;;;;;;;;;;;;;;2058250;28;20256;-83
2022/06/11 04:30:26;;;;;;;;;;;;;;;;;;2058233;28;19914;-83
2022/06/11 04:31:27;;;;;;;;;;;;;;;;;;2061124;28;20267;-82
2022/06/11 04:32:28;;;;;;;;;;;;;;;;;;2058088;28;19918;-83
2022/06/11 04:33:28;;;;;;;;;;;;;;;;;;2049503;28;19925;-86
2022/06/11 04:34:29;;;;;;;;;;;;;;;;;;2040863;29;19915;-83
2022/06/11 04:35:29;;;;;;;;;;;;;;;;;;2049317;29;19925;-82
2022/06/11 04:36:31;;;;;;;;;;;;;;;;;;2057766;28;20359;-83
2022/06/11 04:37:32;;;;;;;;;;;;;;;;;;2057939;28;20339;-82
2022/06/11 04:38:32;;;;;;;;;;;;;;;;;;2049278;29;19922;-82
2022/06/11 04:39:33;;;;;;;;;;;;;;;;;;2041508;29;19915;-82
2022/06/11 04:40:33;;;;;;;;;;;;;;;;;;2049272;29;19922;-83
2022/06/11 04:41:34;;;;;;;;;;;;;;;;;;2049362;29;20314;-82
2022/06/11 04:42:34;;;;;;;;;;;;;;;;;;2041647;29;19915;-83
2022/06/11 04:43:35;;;;;;;;;;;;;;;;;;2049606;29;19914;-83
2022/06/11 04:44:38;;;;;;;;;;;;;;;;;;2057702;28;20533;-81
2022/06/11 04:45:38;;;;;;;;;;;;;;;;;;2057974;28;19918;-83
2022/06/11 04:46:38;;;;;;;;;;;;;;;;;;2057803;28;19918;-83
2022/06/11 04:47:39;;;;;;;;;;;;;;;;;;2057901;28;20358;-82
2022/06/11 04:48:40;;;;;;;;;;;;;;;;;;2057788;28;19994;-81
2022/06/11 04:49:41;;;;;;;;;;;;;;;;;;2049115;28;19921;-83
2022/06/11 04:50:41;;;;;;;;;;;;;;;;;;2049269;28;19914;-82
2022/06/11 04:51:42;;;;;;;;;;;;;;;;;;2049387;29;19980;-84
2022/06/11 04:52:42;;;;;;;;;;;;;;;;;;2049319;29;19915;-82
2022/06/11 04:53:44;;;;;;;;;;;;;;;;;;2057600;28;19964;-82
2022/06/11 04:54:44;;;;;;;;;;;;;;;;;;2057711;28;19915;-82
2022/06/11 04:55:45;;;;;;;;;;;;;;;;;;2057663;28;20319;-85
2022/06/11 04:56:46;;;;;;;;;;;;;;;;;;2049238;28;19925;-82
2022/06/11 04:57:47;;;;;;;;;;;;;;;;;;2049311;28;19933;-83
2022/06/11 04:58:48;;;;;;;;;;;;;;;;;;2057668;28;19917;-83
2022/06/11 04:59:48;;;;;;;;;;;;;;;;;;2049119;29;19914;-83
2022/06/11 05:00:49;;;;;;;;;;;;;;;;;;2041343;29;19965;-83
2022/06/11 05:01:49;;;;;;;;;;;;;;;;;;2049256;29;20009;-82
2022/06/11 05:02:49;;;;;;;;;;;;;;;;;;2057659;28;19914;-82
2022/06/11 05:03:50;;;;;;;;;;;;;;;;;;2057509;28;20382;-83
2022/06/11 05:04:52;;;;;;;;;;;;;;;;;;2057764;28;20347;-83
2022/06/11 05:05:52;;;;;;;;;;;;;;;;;;2057813;28;19979;-82
2022/06/11 05:06:53;;;;;;;;;;;;;;;;;;2057811;28;19992;-83
2022/06/11 05:07:53;;;;;;;;;;;;;;;;;;2057502;28;19947;-82
2022/06/11 05:08:54;;;;;;;;;;;;;;;;;;2049319;28;19958;-82
2022/06/11 05:09:56;;;;;;;;;;;;;;;;;;2049133;28;19939;-82
2022/06/11 05:10:57;;;;;;;;;;;;;;;;;;2057702;28;19922;-83
2022/06/11 05:11:57;;;;;;;;;;;;;;;;;;2057513;28;19949;-82
2022/06/11 05:12:58;;;;;;;;;;;;;;;;;;2056968;28;20375;-82
2022/06/11 05:14:01;;;;;;;;;;;;;;;;;;2056914;28;19914;-82
2022/06/11 05:15:02;;;;;;;;;;;;;;;;;;2057045;28;19918;-82
2022/06/11 05:16:02;;;;;;;;;;;;;;;;;;2057059;28;20382;-82
2022/06/11 05:17:02;;;;;;;;;;;;;;;;;;2057368;28;19914;-82
2022/06/11 05:18:03;;;;;;;;;;;;;;;;;;2057380;28;20004;-83
2022/06/11 05:19:04;;;;;;;;;;;;;;;;;;2057277;28;19925;-82
2022/06/11 05:20:05;;;;;;;;;;;;;;;;;;2057463;28;20422;-81
2022/06/11 05:21:05;;;;;;;;;;;;;;;;;;2057405;28;20392;-81
2022/06/11 05:22:06;;;;;;;;;;;;;;;;;;2057127;28;19922;-81
2022/06/11 05:23:06;;;;;;;;;;;;;;;;;;2057492;28;19917;-81
2022/06/11 05:24:07;;;;;;;;;;;;;;;;;;2057612;28;20374;-82
2022/06/11 05:25:07;;;;;;;;;;;;;;;;;;2057326;28;19914;-81
2022/06/11 05:26:09;;;;;;;;;;;;;;;;;;2048595;29;20190;-81
2022/06/11 05:27:14;;;;;;;;;;;;;;;;;;2049027;28;19918;-81
2022/06/11 05:28:16;;;;;;;;;;;;;;;;;;2057545;28;19918;-81
2022/06/11 05:29:21;;;;;;;;;;;;;;;;;;2049074;29;20352;-81
2022/06/11 05:30:23;;;;;;;;;;;;;;;;;;2049344;28;19914;-81
2022/06/11 05:31:23;;;;;;;;;;;;;;;;;;2057479;28;19914;-81
2022/06/11 05:32:27;;;;;;;;;;;;;;;;;;2057384;28;19962;-80
2022/06/11 05:33:27;;;;;;;;;;;;;;;;;;2057307;28;19918;-82
2022/06/11 05:34:27;;;;;;;;;;;;;;;;;;2057452;28;19997;-81
2022/06/11 05:35:29;;;;;;;;;;;;;;;;;;2057429;28;19914;-81
2022/06/11 05:36:29;;;;;;;;;;;;;;;;;;2057417;28;20301;-82
2022/06/11 05:37:30;;;;;;;;;;;;;;;;;;2057324;28;19914;-81
2022/06/11 05:38:30;;;;;;;;;;;;;;;;;;2057460;28;20351;-81
2022/06/11 05:39:30;;;;;;;;;;;;;;;;;;2057546;28;20283;-81
2022/06/11 05:40:32;;;;;;;;;;;;;;;;;;2057652;28;19972;-80
2022/06/11 05:41:32;;;;;;;;;;;;;;;;;;2057255;28;19924;-81
2022/06/11 05:42:33;;;;;;;;;;;;;;;;;;2057435;28;19913;-81
2022/06/11 05:43:33;;;;;;;;;;;;;;;;;;2057579;28;20410;-81
2022/06/11 05:44:33;;;;;;;;;;;;;;;;;;2057631;28;19965;-81
2022/06/11 05:45:35;;;;;;;;;;;;;;;;;;2056664;28;20275;-82
2022/06/11 05:46:36;;;;;;;;;;;;;;;;;;2048644;29;19977;-81
2022/06/11 05:47:36;;;;;;;;;;;;;;;;;;2049222;29;20371;-81
2022/06/11 05:48:38;;;;;;;;;;;;;;;;;;2057679;28;19922;-81
2022/06/11 05:49:43;;;;;;;;;;;;;;;;;;2048877;29;19932;-81
2022/06/11 05:50:45;;;;;;;;;;;;;;;;;;2049769;28;20079;-81
2022/06/11 05:51:47;;;;;;;;;;;;;;;;;;2048767;29;19918;-81
2022/06/11 05:52:48;;;;;;;;;;;;;;;;;;2048958;28;20345;-81
2022/06/11 05:53:50;;;;;;;;;;;;;;;;;;2057417;28;19957;-81
2022/06/11 05:54:54;;;;;;;;;;;;;;;;;;2057653;28;19922;-81
2022/06/11 05:55:57;;;;;;;;;;;;;;;;;;2057608;28;19925;-81
2022/06/11 05:56:57;;;;;;;;;;;;;;;;;;2049228;28;19915;-81
2022/06/11 05:58:00;;;;;;;;;;;;;;;;;;2048999;29;19981;-81
2022/06/11 05:59:02;;;;;;;;;;;;;;;;;;2057254;28;20360;-81
2022/06/11 06:00:05;;;;;;;;;;;;;;;;;;2057555;28;19926;-81
2022/06/11 06:01:06;;;;;;;;;;;;;;;;;;2057732;28;20343;-82
2022/06/11 06:02:10;;;;;;;;;;;;;;;;;;2049115;29;19929;-81
2022/06/11 06:03:12;;;;;;;;;;;;;;;;;;2049418;28;19914;-81
2022/06/11 06:04:12;;;;;;;;;;;;;;;;;;2057460;28;19918;-81
2022/06/11 06:05:15;;;;;;;;;;;;;;;;;;2048612;29;19925;-81
2022/06/11 06:06:16;;;;;;;;;;;;;;;;;;2040956;29;19915;-81
2022/06/11 06:07:16;;;;;;;;;;;;;;;;;;2048914;28;20734;-81
2022/06/11 06:08:16;;;;;;;;;;;;;;;;;;2057571;28;19922;-82
2022/06/11 06:09:17;;;;;;;;;;;;;;;;;;2057447;28;20016;-81
2022/06/11 06:10:17;;;;;;;;;;;;;;;;;;2049048;29;19919;-81
2022/06/11 06:11:18;;;;;;;;;;;;;;;;;;2048893;29;19926;-81
2022/06/11 06:12:18;;;;;;;;;;;;;;;;;;2048755;29;19958;-81
2022/06/11 06:15:01;;;;;;;;;;;;;;;;;;2032338;29;19914;-81
2022/06/11 06:16:02;;;;;;;;;;;;;;;;;;2032909;29;20017;-82
2022/06/11 06:17:02;;;;;;;;;;;;;;;;;;2032488;29;19926;-82
2022/06/11 06:18:05;;;;;;;;;;;;;;;;;;2024660;29;20408;-81
2022/06/11 06:19:05;;;;;;;;;;;;;;;;;;2025157;29;19930;-81
2022/06/11 06:20:08;;;;;;;;;;;;;;;;;;2032862;29;19919;-81
2022/06/11 06:21:08;;;;;;;;;;;;;;;;;;2057031;28;19914;-81
2022/06/11 06:22:09;;;;;;;;;;;;;;;;;;2048644;28;20205;-81
2022/06/11 06:23:09;;;;;;;;;;;;;;;;;;2048876;28;19914;-81
2022/06/11 06:24:10;;;;;;;;;;;;;;;;;;2057284;28;19918;-81
2022/06/11 06:25:11;;;;;;;;;;;;;;;;;;2057173;28;20371;-81
2022/06/11 06:26:12;;;;;;;;;;;;;;;;;;2057509;28;20366;-80
2022/06/11 06:27:12;;;;;;;;;;;;;;;;;;2057053;28;20073;-81
2022/06/11 06:28:13;;;;;;;;;;;;;;;;;;2057136;28;19914;-80
2022/06/11 06:29:14;;;;;;;;;;;;;;;;;;2056913;28;19918;-80
2022/06/11 06:30:14;;;;;;;;;;;;;;;;;;2057018;28;19918;-80
2022/06/11 06:31:15;;;;;;;;;;;;;;;;;;2056963;28;19914;-80
2022/06/11 06:32:16;;;;;;;;;;;;;;;;;;2057081;28;19924;-80
2022/06/11 06:33:16;;;;;;;;;;;;;;;;;;2048718;29;20439;-80
2022/06/11 06:34:16;;;;;;;;;;;;;;;;;;2048566;29;20081;-81
2022/06/11 06:35:16;;;;;;;;;;;;;;;;;;2057370;28;19957;-80
2022/06/11 06:36:17;;;;;;;;;;;;;;;;;;2057326;28;19957;-80
2022/06/11 06:37:17;;;;;;;;;;;;;;;;;;2048479;29;19968;-80
2022/06/11 06:38:18;;;;;;;;;;;;;;;;;;2048874;29;19961;-80
2022/06/11 06:39:18;;;;;;;;;;;;;;;;;;2057047;28;20186;-80
2022/06/11 06:40:18;;;;;;;;;;;;;;;;;;2057181;28;19914;-80
2022/06/11 06:41:19;;;;;;;;;;;;;;;;;;2057272;28;19918;-80
2022/06/11 06:42:19;;;;;;;;;;;;;;;;;;2057341;28;19925;-81
2022/06/11 06:43:22;;;;;;;;;;;;;;;;;;2057144;28;19956;-80
2022/06/11 06:44:22;;;;;;;;;;;;;;;;;;2056881;28;19925;-80
2022/06/11 06:45:22;;;;;;;;;;;;;;;;;;2057063;28;19914;-80
2022/06/11 06:46:23;;;;;;;;;;;;;;;;;;2057036;28;19922;-79
2022/06/11 06:47:23;;;;;;;;;;;;;;;;;;2057119;28;19914;-81
2022/06/11 06:48:26;;;;;;;;;;;;;;;;;;2048457;28;19922;-80
2022/06/11 06:49:26;;;;;;;;;;;;;;;;;;2048674;28;19922;-80
2022/06/11 06:50:27;;;;;;;;;;;;;;;;;;2056781;28;20355;-81
2022/06/11 06:51:27;;;;;;;;;;;;;;;;;;2057279;28;20316;-81
2022/06/11 06:52:27;;;;;;;;;;;;;;;;;;2057169;28;19964;-81
2022/06/11 06:53:28;;;;;;;;;;;;;;;;;;2048330;29;20367;-80
2022/06/11 06:54:28;;;;;;;;;;;;;;;;;;2048456;28;19918;-81
2022/06/11 06:55:29;;;;;;;;;;;;;;;;;;2057392;28;19925;-81
2022/06/11 06:56:33;;;;;;;;;;;;;;;;;;2057169;28;20315;-82
2022/06/11 06:57:36;;;;;;;;;;;;;;;;;;2048454;28;19914;-80
2022/06/11 06:58:36;;;;;;;;;;;;;;;;;;2048849;28;20406;-79
2022/06/11 06:59:36;;;;;;;;;;;;;;;;;;2056934;28;19997;-79
2022/06/11 07:00:37;;;;;;;;;;;;;;;;;;2057039;28;19989;-80
2022/06/11 07:01:37;;;;;;;;;;;;;;;;;;2057111;28;20298;-81
2022/06/11 07:02:38;;;;;;;;;;;;;;;;;;2057033;28;19919;-81
2022/06/11 07:03:42;;;;;;;;;;;;;;;;;;2056825;28;19925;-80
2022/06/11 07:04:42;;;;;;;;;;;;;;;;;;2057107;28;19973;-79
2022/06/11 07:05:43;;;;;;;;;;;;;;;;;;2057068;28;19918;-79
2022/06/11 07:06:43;;;;;;;;;;;;;;;;;;2057144;28;19918;-80
2022/06/11 07:07:47;;;;;;;;;;;;;;;;;;2048519;29;19916;-79
2022/06/11 07:08:51;;;;;;;;;;;;;;;;;;2048986;28;19966;-79
2022/06/11 07:09:55;;;;;;;;;;;;;;;;;;2057259;28;19925;-80
2022/06/11 07:10:55;;;;;;;;;;;;;;;;;;2048765;29;19914;-79
2022/06/11 07:11:55;;;;;;;;;;;;;;;;;;2048850;29;20348;-79
2022/06/11 07:12:56;;;;;;;;;;;;;;;;;;2056824;28;19918;-80